メインページ
METAR-TAF:

METAR-TAF

空港 :

アッラーマ・イクバール国際空港

ラホール, パキスタン

緯度: 31-31N, 経度: 074-24E, 海抜: 216m

現時点の気象観測

当レポートは22分前の18:55(UTC)に作成
東/南東の風 4kt
気温 22°C
湿度 73%
気圧 1013 hPa
視程: 4000m
高度10000ftの雲はほとんどない

METAR: OPLA 151855Z 12004KT 4000 FU FEW100 22/17 Q1013 NOSIG RMK QFE987 RMK A29.93

時間: 00:17 (19:17 UTC)

予報

当レポートは3時間32分前の15:45(UTC)に作成
予報は15日の 18時(UTC)から 16日の 24時(UTC)まで有効
の風 3kt
視程: 4000m
16日の 00時(UTC)から 16日の 04時(UTC)まで徐々に
変向風 2kt
視程: 2000m
時(UTC)から
東/北東の風 5kt
視程: 4000m

TAF: OPLA 151545Z 1518/1624 09003KT 4000 FU NSC TX30/1610Z TN17/1600Z BECMG 1600/1604 VRB02KT 2000 BR FM 160400 06005KT 4000 FU NSC

4,000以上の空港の気象観測と天気予報(METAR報とTAF報)

利用可能な観測所は地図上に黄色い丸と赤い丸で示す。

丸の上にカーソルを重ねると観測所名を参照できる。

次にクリックすると気象観測と天気予報を参照できる。

マップの切り替え:黒色「×」印の緑ボタンをクリックして拡大、「-」印の緑ボタンをクリックして縮小、緑色の三角印をクリックして隣りの地図に切り替え


METAR-TAF: